sensor_id;sensor_type;location;lat;lon;timestamp;P1;durP1;ratioP1;P2;durP2;ratioP2
47153;SDS011;32907;41.412;2.164;2023-03-23T00:00:12;14.10;;;11.90;;
47153;SDS011;32907;41.412;2.164;2023-03-23T00:02:40;14.95;;;11.85;;
47153;SDS011;32907;41.412;2.164;2023-03-23T00:07:34;15.90;;;11.95;;
47153;SDS011;32907;41.412;2.164;2023-03-23T00:10:01;13.30;;;11.70;;
47153;SDS011;32907;41.412;2.164;2023-03-23T00:12:30;13.45;;;11.50;;
47153;SDS011;32907;41.412;2.164;2023-03-23T00:15:03;14.90;;;12.25;;
47153;SDS011;32907;41.412;2.164;2023-03-23T00:17:31;13.05;;;11.00;;
47153;SDS011;32907;41.412;2.164;2023-03-23T00:20:02;16.08;;;11.98;;
47153;SDS011;32907;41.412;2.164;2023-03-23T00:22:31;13.68;;;11.77;;
47153;SDS011;32907;41.412;2.164;2023-03-23T00:25:05;13.18;;;11.77;;
47153;SDS011;32907;41.412;2.164;2023-03-23T00:27:34;11.25;;;10.13;;
47153;SDS011;32907;41.412;2.164;2023-03-23T00:30:01;18.90;;;11.85;;
47153;SDS011;32907;41.412;2.164;2023-03-23T00:32:28;12.52;;;10.38;;
47153;SDS011;32907;41.412;2.164;2023-03-23T00:37:22;12.68;;;10.95;;
47153;SDS011;32907;41.412;2.164;2023-03-23T00:42:17;12.77;;;10.65;;
47153;SDS011;32907;41.412;2.164;2023-03-23T00:47:11;16.48;;;13.75;;
47153;SDS011;32907;41.412;2.164;2023-03-23T00:49:38;17.15;;;13.07;;
47153;SDS011;32907;41.412;2.164;2023-03-23T00:52:06;17.58;;;13.75;;
47153;SDS011;32907;41.412;2.164;2023-03-23T00:54:33;14.48;;;12.95;;
47153;SDS011;32907;41.412;2.164;2023-03-23T00:57:00;17.60;;;13.73;;
47153;SDS011;32907;41.412;2.164;2023-03-23T00:59:27;18.52;;;14.27;;
47153;SDS011;32907;41.412;2.164;2023-03-23T01:01:54;14.82;;;13.10;;
47153;SDS011;32907;41.412;2.164;2023-03-23T01:04:21;16.25;;;13.02;;
47153;SDS011;32907;41.412;2.164;2023-03-23T01:06:48;13.52;;;12.10;;
47153;SDS011;32907;41.412;2.164;2023-03-23T01:09:17;14.75;;;12.32;;
47153;SDS011;32907;41.412;2.164;2023-03-23T01:11:48;14.45;;;12.38;;
47153;SDS011;32907;41.412;2.164;2023-03-23T01:14:19;13.82;;;12.40;;
47153;SDS011;32907;41.412;2.164;2023-03-23T01:16:49;13.82;;;12.43;;
47153;SDS011;32907;41.412;2.164;2023-03-23T01:19:16;14.15;;;12.75;;
47153;SDS011;32907;41.412;2.164;2023-03-23T01:21:43;13.30;;;12.00;;
47153;SDS011;32907;41.412;2.164;2023-03-23T01:26:36;15.80;;;12.73;;
47153;SDS011;32907;41.412;2.164;2023-03-23T01:31:29;13.05;;;11.73;;
47153;SDS011;32907;41.412;2.164;2023-03-23T01:33:56;14.93;;;12.45;;
47153;SDS011;32907;41.412;2.164;2023-03-23T01:36:24;14.15;;;12.25;;
47153;SDS011;32907;41.412;2.164;2023-03-23T01:38:59;15.45;;;13.45;;
47153;SDS011;32907;41.412;2.164;2023-03-23T01:41:29;15.32;;;12.55;;
47153;SDS011;32907;41.412;2.164;2023-03-23T01:44:00;15.73;;;13.30;;
47153;SDS011;32907;41.412;2.164;2023-03-23T01:46:42;15.80;;;12.70;;
47153;SDS011;32907;41.412;2.164;2023-03-23T01:49:11;17.50;;;14.65;;
47153;SDS011;32907;41.412;2.164;2023-03-23T01:51:46;15.68;;;12.93;;
47153;SDS011;32907;41.412;2.164;2023-03-23T01:54:20;14.40;;;12.60;;
47153;SDS011;32907;41.412;2.164;2023-03-23T01:56:52;15.70;;;12.95;;
47153;SDS011;32907;41.412;2.164;2023-03-23T01:59:21;16.75;;;13.82;;
47153;SDS011;32907;41.412;2.164;2023-03-23T02:02:00;14.10;;;12.50;;
47153;SDS011;32907;41.412;2.164;2023-03-23T02:04:28;16.30;;;13.15;;
47153;SDS011;32907;41.412;2.164;2023-03-23T02:06:56;15.70;;;13.63;;
47153;SDS011;32907;41.412;2.164;2023-03-23T02:09:26;15.20;;;13.60;;
47153;SDS011;32907;41.412;2.164;2023-03-23T02:11:53;16.48;;;13.68;;
47153;SDS011;32907;41.412;2.164;2023-03-23T02:14:21;14.85;;;13.05;;
47153;SDS011;32907;41.412;2.164;2023-03-23T02:19:50;13.70;;;12.30;;
47153;SDS011;32907;41.412;2.164;2023-03-23T02:30:40;16.38;;;14.27;;
47153;SDS011;32907;41.412;2.164;2023-03-23T02:36:12;18.83;;;13.95;;
47153;SDS011;32907;41.412;2.164;2023-03-23T02:41:26;17.00;;;14.55;;
47153;SDS011;32907;41.412;2.164;2023-03-23T02:43:56;16.08;;;14.30;;
47153;SDS011;32907;41.412;2.164;2023-03-23T02:46:25;15.82;;;14.30;;
47153;SDS011;32907;41.412;2.164;2023-03-23T02:48:53;15.35;;;13.35;;
47153;SDS011;32907;41.412;2.164;2023-03-23T02:51:23;16.00;;;14.27;;
47153;SDS011;32907;41.412;2.164;2023-03-23T02:53:51;15.13;;;13.30;;
47153;SDS011;32907;41.412;2.164;2023-03-23T02:56:21;14.68;;;13.15;;
47153;SDS011;32907;41.412;2.164;2023-03-23T02:58:51;15.98;;;13.68;;
47153;SDS011;32907;41.412;2.164;2023-03-23T03:04:07;19.02;;;14.18;;
47153;SDS011;32907;41.412;2.164;2023-03-23T03:06:46;16.50;;;13.40;;
47153;SDS011;32907;41.412;2.164;2023-03-23T03:09:52;14.93;;;13.23;;
47153;SDS011;32907;41.412;2.164;2023-03-23T03:12:57;15.73;;;13.70;;
47153;SDS011;32907;41.412;2.164;2023-03-23T03:21:17;18.13;;;14.18;;
47153;SDS011;32907;41.412;2.164;2023-03-23T03:23:53;14.57;;;13.07;;
47153;SDS011;32907;41.412;2.164;2023-03-23T03:26:23;15.73;;;13.65;;
47153;SDS011;32907;41.412;2.164;2023-03-23T03:29:00;16.50;;;14.10;;
47153;SDS011;32907;41.412;2.164;2023-03-23T03:31:29;16.65;;;13.63;;
47153;SDS011;32907;41.412;2.164;2023-03-23T03:34:00;16.42;;;13.02;;
47153;SDS011;32907;41.412;2.164;2023-03-23T03:36:30;15.88;;;13.27;;
47153;SDS011;32907;41.412;2.164;2023-03-23T03:39:05;14.95;;;12.40;;
47153;SDS011;32907;41.412;2.164;2023-03-23T03:41:36;15.88;;;12.43;;
47153;SDS011;32907;41.412;2.164;2023-03-23T03:44:05;13.57;;;12.18;;
47153;SDS011;32907;41.412;2.164;2023-03-23T03:46:33;14.82;;;12.32;;
47153;SDS011;32907;41.412;2.164;2023-03-23T03:49:01;14.68;;;11.55;;
47153;SDS011;32907;41.412;2.164;2023-03-23T03:51:31;15.30;;;12.35;;
47153;SDS011;32907;41.412;2.164;2023-03-23T03:53:58;15.20;;;12.60;;
47153;SDS011;32907;41.412;2.164;2023-03-23T03:56:27;14.27;;;12.40;;
47153;SDS011;32907;41.412;2.164;2023-03-23T03:59:09;14.00;;;12.50;;
47153;SDS011;32907;41.412;2.164;2023-03-23T04:01:57;13.95;;;11.77;;
47153;SDS011;32907;41.412;2.164;2023-03-23T04:04:24;14.52;;;12.43;;
47153;SDS011;32907;41.412;2.164;2023-03-23T04:06:51;14.15;;;12.23;;
